sensor_id;sensor_type;location;lat;lon;timestamp;pressure;altitude;pressure_sealevel;temperature;humidity
9129;BME280;4599;50.906;6.786;2022-10-20T00:02:19;76786.75;;;-142.83;81.82
9129;BME280;4599;50.906;6.786;2022-10-20T00:06:41;76770.13;;;-142.83;81.66
9129;BME280;4599;50.906;6.786;2022-10-20T00:10:51;76772.19;;;-142.83;81.26
9129;BME280;4599;50.906;6.786;2022-10-20T00:14:58;76757.66;;;-142.83;81.13
9129;BME280;4599;50.906;6.786;2022-10-20T00:19:00;76765.97;;;-142.83;81.16
9129;BME280;4599;50.906;6.786;2022-10-20T00:23:01;76761.81;;;-142.83;81.02
9129;BME280;4599;50.906;6.786;2022-10-20T00:27:05;76743.13;;;-142.83;80.89
9129;BME280;4599;50.906;6.786;2022-10-20T00:31:06;76730.69;;;-142.83;80.82
9129;BME280;4599;50.906;6.786;2022-10-20T00:35:08;76726.53;;;-142.83;80.63
9129;BME280;4599;50.906;6.786;2022-10-20T00:39:09;76728.59;;;-142.83;80.27
9129;BME280;4599;50.906;6.786;2022-10-20T00:43:15;76716.13;;;-142.83;80.00
9129;BME280;4599;50.906;6.786;2022-10-20T00:47:19;76718.22;;;-142.83;79.37
9129;BME280;4599;50.906;6.786;2022-10-20T00:51:25;76711.97;;;-142.83;79.68
9129;BME280;4599;50.906;6.786;2022-10-20T00:55:28;76714.06;;;-142.83;79.04
9129;BME280;4599;50.906;6.786;2022-10-20T00:59:35;76709.91;;;-142.83;79.01
9129;BME280;4599;50.906;6.786;2022-10-20T01:03:41;76691.22;;;-142.83;78.51
9129;BME280;4599;50.906;6.786;2022-10-20T01:07:44;76697.44;;;-142.83;78.52
9129;BME280;4599;50.906;6.786;2022-10-20T01:11:51;76689.16;;;-142.83;79.03
9129;BME280;4599;50.906;6.786;2022-10-20T01:16:09;76678.75;;;-142.83;78.99
9129;BME280;4599;50.906;6.786;2022-10-20T01:20:43;76655.94;;;-142.83;78.20
9129;BME280;4599;50.906;6.786;2022-10-20T01:25:05;76674.59;;;-142.83;78.56
9129;BME280;4599;50.906;6.786;2022-10-20T01:29:12;76682.91;;;-142.83;78.58
9129;BME280;4599;50.906;6.786;2022-10-20T01:33:21;76670.47;;;-142.83;77.84
9129;BME280;4599;50.906;6.786;2022-10-20T01:37:28;76666.31;;;-142.83;77.58
9129;BME280;4599;50.906;6.786;2022-10-20T01:41:51;76658.00;;;-142.83;77.98
9129;BME280;4599;50.906;6.786;2022-10-20T01:45:56;76655.94;;;-142.83;78.08
9129;BME280;4599;50.906;6.786;2022-10-20T01:49:59;76655.94;;;-142.83;77.69
9129;BME280;4599;50.906;6.786;2022-10-20T01:54:01;76658.00;;;-142.83;77.99
9129;BME280;4599;50.906;6.786;2022-10-20T01:58:33;76660.06;;;-142.83;77.79
9129;BME280;4599;50.906;6.786;2022-10-20T02:02:54;76666.31;;;-142.83;77.28
9129;BME280;4599;50.906;6.786;2022-10-20T02:07:07;76658.00;;;-142.83;77.04
9129;BME280;4599;50.906;6.786;2022-10-20T02:11:20;76649.69;;;-142.83;77.37
9129;BME280;4599;50.906;6.786;2022-10-20T02:15:26;76655.94;;;-142.83;77.62
9129;BME280;4599;50.906;6.786;2022-10-20T02:19:33;76655.94;;;-142.83;77.44
9129;BME280;4599;50.906;6.786;2022-10-20T02:23:38;76676.69;;;-142.83;77.50
9129;BME280;4599;50.906;6.786;2022-10-20T02:27:45;76670.47;;;-142.83;77.82
9129;BME280;4599;50.906;6.786;2022-10-20T02:31:47;76658.00;;;-142.83;77.31
9129;BME280;4599;50.906;6.786;2022-10-20T02:35:57;76643.47;;;-142.83;76.72
9129;BME280;4599;50.906;6.786;2022-10-20T02:39:59;76649.69;;;-142.83;76.93
9129;BME280;4599;50.906;6.786;2022-10-20T02:44:00;76653.84;;;-142.83;77.05
9129;BME280;4599;50.906;6.786;2022-10-20T02:48:02;76645.53;;;-142.83;76.40
9129;BME280;4599;50.906;6.786;2022-10-20T02:52:09;76651.78;;;-142.83;76.72
9129;BME280;4599;50.906;6.786;2022-10-20T02:56:11;76653.84;;;-142.83;77.00
9129;BME280;4599;50.906;6.786;2022-10-20T03:00:13;76664.22;;;-142.83;77.11
9129;BME280;4599;50.906;6.786;2022-10-20T03:04:14;76655.94;;;-142.83;76.73
9129;BME280;4599;50.906;6.786;2022-10-20T03:08:18;76662.16;;;-142.83;76.83
9129;BME280;4599;50.906;6.786;2022-10-20T03:12:19;76664.22;;;-142.83;76.34
9129;BME280;4599;50.906;6.786;2022-10-20T03:16:21;76672.53;;;-142.83;76.95
9129;BME280;4599;50.906;6.786;2022-10-20T03:20:22;76653.84;;;-142.83;76.48
9129;BME280;4599;50.906;6.786;2022-10-20T03:24:25;76664.22;;;-142.83;76.66
9129;BME280;4599;50.906;6.786;2022-10-20T03:28:27;76664.22;;;-142.83;76.59
9129;BME280;4599;50.906;6.786;2022-10-20T03:32:28;76653.84;;;-142.83;76.49
9129;BME280;4599;50.906;6.786;2022-10-20T03:36:30;76643.47;;;-142.83;76.15
9129;BME280;4599;50.906;6.786;2022-10-20T03:40:33;76653.84;;;-142.83;76.57
9129;BME280;4599;50.906;6.786;2022-10-20T03:44:34;76643.47;;;-142.83;76.57
9129;BME280;4599;50.906;6.786;2022-10-20T03:48:37;76647.63;;;-142.83;76.54
9129;BME280;4599;50.906;6.786;2022-10-20T03:52:39;76641.38;;;-142.83;75.95
9129;BME280;4599;50.906;6.786;2022-10-20T03:56:42;76651.78;;;-142.83;76.34
9129;BME280;4599;50.906;6.786;2022-10-20T04:00:44;76655.94;;;-142.83;76.23
9129;BME280;4599;50.906;6.786;2022-10-20T04:04:45;76658.00;;;-142.83;75.90
9129;BME280;4599;50.906;6.786;2022-10-20T04:08:47;76649.69;;;-142.83;75.98
9129;BME280;4599;50.906;6.786;2022-10-20T04:12:50;76631.00;;;-142.83;75.91
9129;BME280;4599;50.906;6.786;2022-10-20T04:16:51;76637.22;;;-142.83;76.50
9129;BME280;4599;50.906;6.786;2022-10-20T04:20:53;76628.94;;;-142.83;75.66
9129;BME280;4599;50.906;6.786;2022-10-20T04:24:54;76624.78;;;-142.83;75.70
9129;BME280;4599;50.906;6.786;2022-10-20T04:28:57;76622.69;;;-142.83;75.42
9129;BME280;4599;50.906;6.786;2022-10-20T04:32:59;76614.41;;;-142.83;75.53
9129;BME280;4599;50.906;6.786;2022-10-20T04:37:01;76622.69;;;-142.83;75.44
9129;BME280;4599;50.906;6.786;2022-10-20T04:41:03;76597.78;;;-142.83;75.18
9129;BME280;4599;50.906;6.786;2022-10-20T04:45:07;76593.63;;;-142.83;74.34
9129;BME280;4599;50.906;6.786;2022-10-20T04:49:09;76595.72;;;-142.83;74.67
9129;BME280;4599;50.906;6.786;2022-10-20T04:53:10;76593.63;;;-142.83;74.24
9129;BME280;4599;50.906;6.786;2022-10-20T04:57:12;76589.47;;;-142.83;74.47
9129;BME280;4599;50.906;6.786;2022-10-20T05:01:15;76591.56;;;-142.83;74.52
9129;BME280;4599;50.906;6.786;2022-10-20T05:05:17;76589.47;;;-142.83;74.99
9129;BME280;4599;50.906;6.786;2022-10-20T05:09:21;76597.78;;;-142.83;74.56
9129;BME280;4599;50.906;6.786;2022-10-20T05:13:23;76595.72;;;-142.83;74.97
9129;BME280;4599;50.906;6.786;2022-10-20T05:17:27;76577.03;;;-142.83;74.88
9129;BME280;4599;50.906;6.786;2022-10-20T05:21:30;76572.88;;;-142.83;74.51
9129;BME280;4599;50.906;6.786;2022-10-20T05:25:35;76577.03;;;-142.83;74.91
9129;BME280;4599;50.906;6.786;2022-10-20T05:29:37;76579.09;;;-142.83;75.20
9129;BME280;4599;50.906;6.786;2022-10-20T05:33:43;76572.88;;;-142.83;74.73
9129;BME280;4599;50.906;6.786;2022-10-20T05:37:45;76570.78;;;-142.83;74.75
9129;BME280;4599;50.906;6.786;2022-10-20T05:41:46;76568.72;;;-142.83;74.85
9129;BME280;4599;50.906;6.786;2022-10-20T05:45:52;76564.56;;;-142.83;74.72
9129;BME280;4599;50.906;6.786;2022-10-20T05:49:55;76556.25;;;-142.83;74.50
9129;BME280;4599;50.906;6.786;2022-10-20T05:53:57;76537.56;;;-142.83;74.45
9129;BME280;4599;50.906;6.786;2022-10-20T05:57:59;76552.09;;;-142.83;74.35
9129;BME280;4599;50.906;6.786;2022-10-20T06:02:01;76556.25;;;-142.83;74.40
9129;BME280;4599;50.906;6.786;2022-10-20T06:06:04;76556.25;;;-142.83;74.26
9129;BME280;4599;50.906;6.786;2022-10-20T06:10:06;76552.09;;;-142.83;74.21
9129;BME280;4599;50.906;6.786;2022-10-20T06:14:08;76547.94;;;-142.83;74.38
9129;BME280;4599;50.906;6.786;2022-10-20T06:18:10;76562.50;;;-142.83;74.54
9129;BME280;4599;50.906;6.786;2022-10-20T06:22:13;76564.56;;;-142.83;74.19
9129;BME280;4599;50.906;6.786;2022-10-20T06:26:15;76541.72;;;-142.83;73.87
9129;BME280;4599;50.906;6.786;2022-10-20T06:30:17;76539.66;;;-142.83;73.77
9129;BME280;4599;50.906;6.786;2022-10-20T06:34:21;76556.25;;;-142.83;73.86
9129;BME280;4599;50.906;6.786;2022-10-20T06:38:24;76554.19;;;-142.83;74.29
9129;BME280;4599;50.906;6.786;2022-10-20T06:42:25;76543.81;;;-142.83;74.74
9129;BME280;4599;50.906;6.786;2022-10-20T06:46:28;76531.34;;;-142.83;73.95
9129;BME280;4599;50.906;6.786;2022-10-20T06:50:32;76543.81;;;-142.83;74.36
9129;BME280;4599;50.906;6.786;2022-10-20T06:54:35;76527.19;;;-142.83;73.64
9129;BME280;4599;50.906;6.786;2022-10-20T06:58:37;76535.50;;;-142.83;74.13
9129;BME280;4599;50.906;6.786;2022-10-20T07:02:39;76523.03;;;-142.83;73.65
9129;BME280;4599;50.906;6.786;2022-10-20T07:06:42;76523.03;;;-142.83;73.66
9129;BME280;4599;50.906;6.786;2022-10-20T07:10:45;76527.19;;;-142.83;73.07
9129;BME280;4599;50.906;6.786;2022-10-20T07:14:47;76529.25;;;-142.83;73.67
9129;BME280;4599;50.906;6.786;2022-10-20T07:18:50;76518.88;;;-142.83;73.51
9129;BME280;4599;50.906;6.786;2022-10-20T07:22:52;76498.13;;;-142.83;73.44
9129;BME280;4599;50.906;6.786;2022-10-20T07:26:55;76479.44;;;-142.83;73.55
9129;BME280;4599;50.906;6.786;2022-10-20T07:30:56;76473.22;;;-142.83;73.18
9129;BME280;4599;50.906;6.786;2022-10-20T07:35:02;76469.06;;;-142.83;73.07
9129;BME280;4599;50.906;6.786;2022-10-20T07:39:04;76471.13;;;-142.83;72.68
9129;BME280;4599;50.906;6.786;2022-10-20T07:43:07;76444.13;;;-142.83;72.23
9129;BME280;4599;50.906;6.786;2022-10-20T07:47:09;76444.13;;;-142.83;71.74
9129;BME280;4599;50.906;6.786;2022-10-20T07:51:25;76444.13;;;-142.83;71.83
9129;BME280;4599;50.906;6.786;2022-10-20T07:55:28;76431.69;;;-142.83;71.29
9129;BME280;4599;50.906;6.786;2022-10-20T07:59:40;76419.22;;;-142.83;71.43
9129;BME280;4599;50.906;6.786;2022-10-20T08:03:42;76417.16;;;-142.83;71.48
9129;BME280;4599;50.906;6.786;2022-10-20T08:07:44;76413.00;;;-142.83;71.34
9129;BME280;4599;50.906;6.786;2022-10-20T08:11:45;76396.38;;;-142.83;71.55
9129;BME280;4599;50.906;6.786;2022-10-20T08:15:52;76413.00;;;-142.83;71.10
9129;BME280;4599;50.906;6.786;2022-10-20T08:19:55;76406.75;;;-142.83;71.13
9129;BME280;4599;50.906;6.786;2022-10-20T08:24:00;76408.84;;;-142.83;71.35
9129;BME280;4599;50.906;6.786;2022-10-20T08:28:02;76392.22;;;-142.83;71.69
9129;BME280;4599;50.906;6.786;2022-10-20T08:32:05;76381.84;;;-142.83;71.48
9129;BME280;4599;50.906;6.786;2022-10-20T08:36:08;76377.69;;;-142.83;71.03
9129;BME280;4599;50.906;6.786;2022-10-20T08:40:11;76373.53;;;-142.83;70.97
9129;BME280;4599;50.906;6.786;2022-10-20T08:44:18;76367.31;;;-142.83;70.94
9129;BME280;4599;50.906;6.786;2022-10-20T08:48:25;76386.00;;;-142.83;70.91
9129;BME280;4599;50.906;6.786;2022-10-20T08:52:27;76383.94;;;-142.83;71.64
9129;BME280;4599;50.906;6.786;2022-10-20T08:56:32;76394.31;;;-142.83;71.81
9129;BME280;4599;50.906;6.786;2022-10-20T09:00:37;76381.84;;;-142.83;71.27
9129;BME280;4599;50.906;6.786;2022-10-20T09:04:42;76375.63;;;-142.83;71.88
9129;BME280;4599;50.906;6.786;2022-10-20T09:08:46;76379.78;;;-142.83;71.38
9129;BME280;4599;50.906;6.786;2022-10-20T09:12:48;76377.69;;;-142.83;71.21
9129;BME280;4599;50.906;6.786;2022-10-20T09:16:50;76350.72;;;-142.83;70.89
9129;BME280;4599;50.906;6.786;2022-10-20T09:21:05;76365.25;;;-142.83;71.15
9129;BME280;4599;50.906;6.786;2022-10-20T09:25:12;76363.16;;;-142.83;71.81
9129;BME280;4599;50.906;6.786;2022-10-20T09:29:17;76365.25;;;-142.83;71.67
9129;BME280;4599;50.906;6.786;2022-10-20T09:33:23;76365.25;;;-142.83;71.98
9129;BME280;4599;50.906;6.786;2022-10-20T09:37:27;76369.41;;;-142.83;72.06
9129;BME280;4599;50.906;6.786;2022-10-20T09:41:30;76365.25;;;-142.83;72.58
9129;BME280;4599;50.906;6.786;2022-10-20T09:45:32;76381.84;;;-142.83;74.36
9129;BME280;4599;50.906;6.786;2022-10-20T09:49:36;76386.00;;;-142.83;74.70
9129;BME280;4599;50.906;6.786;2022-10-20T09:53:49;76396.38;;;-142.83;75.21
9129;BME280;4599;50.906;6.786;2022-10-20T09:57:53;76398.47;;;-142.83;76.68
9129;BME280;4599;50.906;6.786;2022-10-20T10:01:57;76406.75;;;-142.83;76.83
9129;BME280;4599;50.906;6.786;2022-10-20T10:05:59;76413.00;;;-142.83;77.98
9129;BME280;4599;50.906;6.786;2022-10-20T10:10:04;76410.91;;;-142.83;78.74
9129;BME280;4599;50.906;6.786;2022-10-20T10:14:28;76423.38;;;-142.83;78.67
9129;BME280;4599;50.906;6.786;2022-10-20T10:18:31;76425.44;;;-142.83;78.80
9129;BME280;4599;50.906;6.786;2022-10-20T10:22:34;76419.22;;;-142.83;79.81
9129;BME280;4599;50.906;6.786;2022-10-20T10:26:44;76413.00;;;-142.83;79.80
9129;BME280;4599;50.906;6.786;2022-10-20T10:30:46;76429.59;;;-142.83;80.39
9129;BME280;4599;50.906;6.786;2022-10-20T10:35:14;76413.00;;;-142.83;81.61
9129;BME280;4599;50.906;6.786;2022-10-20T10:39:20;76381.84;;;-142.83;81.63
9129;BME280;4599;50.906;6.786;2022-10-20T10:43:29;76406.75;;;-142.83;82.51
9129;BME280;4599;50.906;6.786;2022-10-20T10:52:33;76396.38;;;-142.83;82.80
9129;BME280;4599;50.906;6.786;2022-10-20T10:56:42;76390.16;;;-142.83;82.94
9129;BME280;4599;50.906;6.786;2022-10-20T11:00:54;76392.22;;;-142.83;83.74
9129;BME280;4599;50.906;6.786;2022-10-20T11:05:20;76406.75;;;-142.83;83.43
9129;BME280;4599;50.906;6.786;2022-10-20T11:09:31;76400.53;;;-142.83;84.15
9129;BME280;4599;50.906;6.786;2022-10-20T11:13:41;76406.75;;;-142.83;84.57
9129;BME280;4599;50.906;6.786;2022-10-20T11:17:53;76398.47;;;-142.83;85.16
9129;BME280;4599;50.906;6.786;2022-10-20T11:22:04;76413.00;;;-142.83;85.83
9129;BME280;4599;50.906;6.786;2022-10-20T11:26:21;76392.22;;;-142.83;85.57
9129;BME280;4599;50.906;6.786;2022-10-20T11:30:32;76396.38;;;-142.83;85.87
9129;BME280;4599;50.906;6.786;2022-10-20T11:34:48;76392.22;;;-142.83;86.92
9129;BME280;4599;50.906;6.786;2022-10-20T11:38:52;76396.38;;;-142.83;86.29
9129;BME280;4599;50.906;6.786;2022-10-20T11:42:59;76369.41;;;-142.83;86.61
9129;BME280;4599;50.906;6.786;2022-10-20T11:47:13;76367.31;;;-142.83;86.95
9129;BME280;4599;50.906;6.786;2022-10-20T11:51:43;76359.00;;;-142.83;86.89
9129;BME280;4599;50.906;6.786;2022-10-20T11:55:56;76344.47;;;-142.83;87.49
9129;BME280;4599;50.906;6.786;2022-10-20T12:00:09;76381.84;;;-142.83;87.58
9129;BME280;4599;50.906;6.786;2022-10-20T12:04:33;76354.84;;;-142.83;87.32
9129;BME280;4599;50.906;6.786;2022-10-20T12:08:56;76327.88;;;-142.83;87.71
9129;BME280;4599;50.906;6.786;2022-10-20T12:13:19;76332.03;;;-142.83;88.36
9129;BME280;4599;50.906;6.786;2022-10-20T12:17:29;76332.03;;;-142.83;88.44
9129;BME280;4599;50.906;6.786;2022-10-20T12:21:54;76313.34;;;-142.83;88.02
9129;BME280;4599;50.906;6.786;2022-10-20T12:25:57;76311.25;;;-142.83;88.06
9129;BME280;4599;50.906;6.786;2022-10-20T12:30:10;76298.81;;;-142.83;88.07
9129;BME280;4599;50.906;6.786;2022-10-20T12:34:25;76278.03;;;-142.83;87.97
9129;BME280;4599;50.906;6.786;2022-10-20T12:38:39;76280.13;;;-142.83;88.00
9129;BME280;4599;50.906;6.786;2022-10-20T12:42:48;76246.91;;;-142.83;88.03
9129;BME280;4599;50.906;6.786;2022-10-20T12:46:54;76240.66;;;-142.83;87.38
9129;BME280;4599;50.906;6.786;2022-10-20T12:51:02;76240.66;;;-142.83;86.70
9129;BME280;4599;50.906;6.786;2022-10-20T12:55:13;76236.50;;;-142.83;85.77
9129;BME280;4599;50.906;6.786;2022-10-20T12:59:33;76219.91;;;-142.83;86.41
9129;BME280;4599;50.906;6.786;2022-10-20T13:03:41;76211.59;;;-142.83;85.52
9129;BME280;4599;50.906;6.786;2022-10-20T13:08:00;76201.22;;;-142.83;86.19
9129;BME280;4599;50.906;6.786;2022-10-20T13:12:02;76215.75;;;-142.83;86.63
9129;BME280;4599;50.906;6.786;2022-10-20T13:16:13;76213.69;;;-142.83;85.84
9129;BME280;4599;50.906;6.786;2022-10-20T13:20:24;76205.38;;;-142.83;84.80
9129;BME280;4599;50.906;6.786;2022-10-20T13:24:30;76201.22;;;-142.83;85.76
9129;BME280;4599;50.906;6.786;2022-10-20T13:28:33;76199.16;;;-142.83;85.83
9129;BME280;4599;50.906;6.786;2022-10-20T13:32:40;76186.69;;;-142.83;85.28
9129;BME280;4599;50.906;6.786;2022-10-20T13:37:14;76170.06;;;-142.83;85.20
9129;BME280;4599;50.906;6.786;2022-10-20T13:41:30;76151.41;;;-142.83;84.88
9129;BME280;4599;50.906;6.786;2022-10-20T13:45:51;76130.63;;;-142.83;84.67
9129;BME280;4599;50.906;6.786;2022-10-20T13:49:59;76132.72;;;-142.83;84.48
9129;BME280;4599;50.906;6.786;2022-10-20T13:54:04;76128.56;;;-142.83;83.53
9129;BME280;4599;50.906;6.786;2022-10-20T13:58:15;76120.25;;;-142.83;83.48
9129;BME280;4599;50.906;6.786;2022-10-20T14:02:23;76097.41;;;-142.83;83.26
9129;BME280;4599;50.906;6.786;2022-10-20T14:06:35;76082.88;;;-142.83;82.39
9129;BME280;4599;50.906;6.786;2022-10-20T14:10:47;76070.44;;;-142.83;82.00
9129;BME280;4599;50.906;6.786;2022-10-20T14:14:50;76068.34;;;-142.83;81.97
9129;BME280;4599;50.906;6.786;2022-10-20T14:19:01;76051.75;;;-142.83;81.98
9129;BME280;4599;50.906;6.786;2022-10-20T14:23:09;76057.97;;;-142.83;81.54
9129;BME280;4599;50.906;6.786;2022-10-20T14:27:14;76047.59;;;-142.83;81.19
9129;BME280;4599;50.906;6.786;2022-10-20T14:31:20;76041.38;;;-142.83;80.77
9129;BME280;4599;50.906;6.786;2022-10-20T14:35:24;76033.06;;;-142.83;80.21
9129;BME280;4599;50.906;6.786;2022-10-20T14:39:33;76024.75;;;-142.83;80.24
9129;BME280;4599;50.906;6.786;2022-10-20T14:43:37;76035.13;;;-142.83;79.91
9129;BME280;4599;50.906;6.786;2022-10-20T14:47:40;76039.28;;;-142.83;80.29
9129;BME280;4599;50.906;6.786;2022-10-20T14:51:44;76055.91;;;-142.83;80.86
9129;BME280;4599;50.906;6.786;2022-10-20T14:55:56;76070.44;;;-142.83;80.88
9129;BME280;4599;50.906;6.786;2022-10-20T14:59:58;76074.56;;;-142.83;81.41
9129;BME280;4599;50.906;6.786;2022-10-20T15:04:14;76078.72;;;-142.83;81.57
9129;BME280;4599;50.906;6.786;2022-10-20T15:08:22;76078.72;;;-142.83;81.58
9129;BME280;4599;50.906;6.786;2022-10-20T15:12:29;76066.28;;;-142.83;81.22
9129;BME280;4599;50.906;6.786;2022-10-20T15:16:38;76072.50;;;-142.83;81.72
9129;BME280;4599;50.906;6.786;2022-10-20T15:20:41;76057.97;;;-142.83;81.35
9129;BME280;4599;50.906;6.786;2022-10-20T15:24:45;76072.50;;;-142.83;81.46
9129;BME280;4599;50.906;6.786;2022-10-20T15:28:48;76074.56;;;-142.83;81.59
9129;BME280;4599;50.906;6.786;2022-10-20T15:32:51;76066.28;;;-142.83;82.00
9129;BME280;4599;50.906;6.786;2022-10-20T15:36:53;76080.81;;;-142.83;82.05
9129;BME280;4599;50.906;6.786;2022-10-20T15:40:55;76070.44;;;-142.83;82.40
9129;BME280;4599;50.906;6.786;2022-10-20T15:44:58;76057.97;;;-142.83;81.96
9129;BME280;4599;50.906;6.786;2022-10-20T15:48:59;76057.97;;;-142.83;82.58
9129;BME280;4599;50.906;6.786;2022-10-20T15:53:01;76066.28;;;-142.83;82.78
9129;BME280;4599;50.906;6.786;2022-10-20T15:57:03;76066.28;;;-142.83;82.59
9129;BME280;4599;50.906;6.786;2022-10-20T16:01:06;76066.28;;;-142.83;83.29
9129;BME280;4599;50.906;6.786;2022-10-20T16:05:08;76060.03;;;-142.83;82.38
9129;BME280;4599;50.906;6.786;2022-10-20T16:09:10;76060.03;;;-142.83;82.29
9129;BME280;4599;50.906;6.786;2022-10-20T16:13:16;76062.13;;;-142.83;82.49
9129;BME280;4599;50.906;6.786;2022-10-20T16:17:19;76076.66;;;-142.83;82.78
9129;BME280;4599;50.906;6.786;2022-10-20T16:21:20;76066.28;;;-142.83;83.20
9129;BME280;4599;50.906;6.786;2022-10-20T16:25:22;76064.19;;;-142.83;83.67
9129;BME280;4599;50.906;6.786;2022-10-20T16:29:24;76082.88;;;-142.83;84.07
9129;BME280;4599;50.906;6.786;2022-10-20T16:33:28;76068.34;;;-142.83;83.91
9129;BME280;4599;50.906;6.786;2022-10-20T16:37:29;76076.66;;;-142.83;83.59
9129;BME280;4599;50.906;6.786;2022-10-20T16:41:31;76057.97;;;-142.83;83.83
9129;BME280;4599;50.906;6.786;2022-10-20T16:45:32;76074.56;;;-142.83;83.97
9129;BME280;4599;50.906;6.786;2022-10-20T16:49:35;76066.28;;;-142.83;84.10
9129;BME280;4599;50.906;6.786;2022-10-20T16:53:37;76074.56;;;-142.83;84.24
9129;BME280;4599;50.906;6.786;2022-10-20T16:57:39;76080.81;;;-142.83;84.62
9129;BME280;4599;50.906;6.786;2022-10-20T17:01:41;76070.44;;;-142.83;84.22
9129;BME280;4599;50.906;6.786;2022-10-20T17:05:44;76070.44;;;-142.83;84.28
9129;BME280;4599;50.906;6.786;2022-10-20T17:09:45;76076.66;;;-142.83;84.40
9129;BME280;4599;50.906;6.786;2022-10-20T17:13:47;76078.72;;;-142.83;84.39
9129;BME280;4599;50.906;6.786;2022-10-20T17:17:48;76080.81;;;-142.83;84.54
9129;BME280;4599;50.906;6.786;2022-10-20T17:21:51;76076.66;;;-142.83;84.39
9129;BME280;4599;50.906;6.786;2022-10-20T17:25:59;76087.03;;;-142.83;84.63
9129;BME280;4599;50.906;6.786;2022-10-20T17:30:01;76080.81;;;-142.83;84.96
9129;BME280;4599;50.906;6.786;2022-10-20T17:34:04;76091.19;;;-142.83;85.37
9129;BME280;4599;50.906;6.786;2022-10-20T17:38:07;76087.03;;;-142.83;85.04
9129;BME280;4599;50.906;6.786;2022-10-20T17:42:08;76072.50;;;-142.83;85.17
9129;BME280;4599;50.906;6.786;2022-10-20T17:46:12;76084.97;;;-142.83;85.40
9129;BME280;4599;50.906;6.786;2022-10-20T17:50:14;76099.50;;;-142.83;85.60
9129;BME280;4599;50.906;6.786;2022-10-20T17:54:17;76084.97;;;-142.83;85.77
9129;BME280;4599;50.906;6.786;2022-10-20T17:58:18;76093.25;;;-142.83;85.24
9129;BME280;4599;50.906;6.786;2022-10-20T18:02:20;76076.66;;;-142.83;85.21
9129;BME280;4599;50.906;6.786;2022-10-20T18:06:24;76078.72;;;-142.83;85.43
9129;BME280;4599;50.906;6.786;2022-10-20T18:10:39;76066.28;;;-142.83;85.43
9129;BME280;4599;50.906;6.786;2022-10-20T18:14:44;76074.56;;;-142.83;85.81
9129;BME280;4599;50.906;6.786;2022-10-20T18:18:46;76076.66;;;-142.83;85.63
9129;BME280;4599;50.906;6.786;2022-10-20T18:22:48;76074.56;;;-142.83;85.61
9129;BME280;4599;50.906;6.786;2022-10-20T18:26:50;76053.81;;;-142.83;85.95
9129;BME280;4599;50.906;6.786;2022-10-20T18:30:52;76045.50;;;-142.83;85.60
9129;BME280;4599;50.906;6.786;2022-10-20T18:34:53;76041.38;;;-142.83;85.60
9129;BME280;4599;50.906;6.786;2022-10-20T18:38:55;76033.06;;;-142.83;85.70
9129;BME280;4599;50.906;6.786;2022-10-20T18:42:58;76037.22;;;-142.83;86.02
9129;BME280;4599;50.906;6.786;2022-10-20T18:47:00;76030.97;;;-142.83;85.80
9129;BME280;4599;50.906;6.786;2022-10-20T18:51:02;76022.69;;;-142.83;85.64
9129;BME280;4599;50.906;6.786;2022-10-20T18:55:05;76033.06;;;-142.83;85.67
9129;BME280;4599;50.906;6.786;2022-10-20T18:59:10;76022.69;;;-142.83;86.33
9129;BME280;4599;50.906;6.786;2022-10-20T19:03:12;76020.59;;;-142.83;85.75
9129;BME280;4599;50.906;6.786;2022-10-20T19:07:14;76016.44;;;-142.83;86.38
9129;BME280;4599;50.906;6.786;2022-10-20T19:11:15;76008.16;;;-142.83;85.93
9129;BME280;4599;50.906;6.786;2022-10-20T19:15:18;75995.69;;;-142.83;86.47
9129;BME280;4599;50.906;6.786;2022-10-20T19:19:20;75989.47;;;-142.83;86.02
9129;BME280;4599;50.906;6.786;2022-10-20T19:23:22;75985.31;;;-142.83;86.01
9129;BME280;4599;50.906;6.786;2022-10-20T19:27:24;75991.53;;;-142.83;86.50
9129;BME280;4599;50.906;6.786;2022-10-20T19:31:31;75997.75;;;-142.83;86.13
9129;BME280;4599;50.906;6.786;2022-10-20T19:35:32;76001.91;;;-142.83;86.66
9129;BME280;4599;50.906;6.786;2022-10-20T19:39:37;75985.31;;;-142.83;86.60
9129;BME280;4599;50.906;6.786;2022-10-20T19:43:38;75993.63;;;-142.83;87.35
9129;BME280;4599;50.906;6.786;2022-10-20T19:47:43;75993.63;;;-142.83;87.69
9129;BME280;4599;50.906;6.786;2022-10-20T19:51:45;75987.38;;;-142.83;87.34
9129;BME280;4599;50.906;6.786;2022-10-20T19:55:47;75987.38;;;-142.83;87.53
9129;BME280;4599;50.906;6.786;2022-10-20T19:59:49;75991.53;;;-142.83;87.23
9129;BME280;4599;50.906;6.786;2022-10-20T20:03:52;75983.22;;;-142.83;86.95
9129;BME280;4599;50.906;6.786;2022-10-20T20:07:53;75970.78;;;-142.83;86.90
9129;BME280;4599;50.906;6.786;2022-10-20T20:11:58;75954.16;;;-142.83;86.97
9129;BME280;4599;50.906;6.786;2022-10-20T20:16:03;75945.88;;;-142.83;87.18
9129;BME280;4599;50.906;6.786;2022-10-20T20:20:09;75943.78;;;-142.83;87.11
9129;BME280;4599;50.906;6.786;2022-10-20T20:24:11;75945.88;;;-142.83;87.07
9129;BME280;4599;50.906;6.786;2022-10-20T20:28:13;75952.09;;;-142.83;87.04
9129;BME280;4599;50.906;6.786;2022-10-20T20:32:15;75943.78;;;-142.83;87.07
9129;BME280;4599;50.906;6.786;2022-10-20T20:36:18;75933.41;;;-142.83;87.33
9129;BME280;4599;50.906;6.786;2022-10-20T20:40:20;75931.34;;;-142.83;87.36
9129;BME280;4599;50.906;6.786;2022-10-20T20:44:22;75927.19;;;-142.83;87.63
9129;BME280;4599;50.906;6.786;2022-10-20T20:48:28;75929.25;;;-142.83;87.81
9129;BME280;4599;50.906;6.786;2022-10-20T20:52:31;75920.94;;;-142.83;88.92
9129;BME280;4599;50.906;6.786;2022-10-20T20:56:33;75933.41;;;-142.83;89.46
9129;BME280;4599;50.906;6.786;2022-10-20T21:00:35;75933.41;;;-142.83;89.51
9129;BME280;4599;50.906;6.786;2022-10-20T21:04:36;75933.41;;;-142.83;90.30
9129;BME280;4599;50.906;6.786;2022-10-20T21:08:41;75935.47;;;-142.83;90.29
9129;BME280;4599;50.906;6.786;2022-10-20T21:12:43;75929.25;;;-142.83;90.31
9129;BME280;4599;50.906;6.786;2022-10-20T21:16:44;75920.94;;;-142.83;89.96
9129;BME280;4599;50.906;6.786;2022-10-20T21:20:46;75916.81;;;-142.83;90.15
9129;BME280;4599;50.906;6.786;2022-10-20T21:24:49;75918.88;;;-142.83;90.19
9129;BME280;4599;50.906;6.786;2022-10-20T21:28:51;75916.81;;;-142.83;90.34
9129;BME280;4599;50.906;6.786;2022-10-20T21:32:52;75912.66;;;-142.83;89.80
9129;BME280;4599;50.906;6.786;2022-10-20T21:36:54;75916.81;;;-142.83;89.46
9129;BME280;4599;50.906;6.786;2022-10-20T21:41:01;75927.19;;;-142.83;89.59
9129;BME280;4599;50.906;6.786;2022-10-20T21:45:03;75929.25;;;-142.83;89.46